createdAt,value
2022-12-14T00:00:51.541Z,3.15
2022-12-14T00:03:18.887Z,3.16
2022-12-14T00:05:45.977Z,3.16
2022-12-14T00:08:13.356Z,3.16
2022-12-14T00:10:40.738Z,3.18
2022-12-14T00:13:08.445Z,3.21
2022-12-14T00:15:36.699Z,3.21
2022-12-14T00:18:03.878Z,3.24
2022-12-14T00:20:31.139Z,3.28
2022-12-14T00:22:58.205Z,3.33
2022-12-14T00:25:25.377Z,3.31
2022-12-14T00:27:52.447Z,3.23
2022-12-14T00:30:20.377Z,3.19
2022-12-14T00:32:47.856Z,3.18
2022-12-14T00:35:16.738Z,3.10
2022-12-14T00:37:43.954Z,3.09
2022-12-14T00:40:15.778Z,3.08
2022-12-14T00:42:42.686Z,3.09
2022-12-14T00:45:10.086Z,3.10
2022-12-14T00:47:40.676Z,3.14
2022-12-14T00:50:08.367Z,3.13
2022-12-14T00:52:35.334Z,3.13
2022-12-14T00:55:02.357Z,3.09
2022-12-14T00:57:30.637Z,3.12
2022-12-14T00:59:57.528Z,3.11
2022-12-14T01:02:24.447Z,3.13
2022-12-14T01:04:51.460Z,3.13
2022-12-14T01:07:18.333Z,3.14
2022-12-14T01:09:45.264Z,3.22
2022-12-14T01:12:14.068Z,3.20
2022-12-14T01:14:41.142Z,3.20
2022-12-14T01:17:08.016Z,3.18
2022-12-14T01:19:34.965Z,3.19
2022-12-14T01:22:01.897Z,3.21
2022-12-14T01:24:28.802Z,3.18
2022-12-14T01:26:55.725Z,3.18
2022-12-14T01:29:22.646Z,3.20
2022-12-14T01:31:49.857Z,3.24
2022-12-14T01:34:16.805Z,3.24
2022-12-14T01:36:43.618Z,3.25
2022-12-14T01:39:13.972Z,3.28
2022-12-14T01:41:43.978Z,3.29
2022-12-14T01:44:11.036Z,3.30
2022-12-14T01:46:39.206Z,3.26
2022-12-14T01:49:13.158Z,3.25
2022-12-14T01:51:43.137Z,3.25
2022-12-14T01:54:13.204Z,3.26
2022-12-14T01:56:42.006Z,3.31
2022-12-14T01:59:12.458Z,3.26
2022-12-14T02:01:39.426Z,3.25
2022-12-14T02:04:06.776Z,3.21
2022-12-14T02:06:36.507Z,3.20
2022-12-14T02:09:06.116Z,3.18
2022-12-14T02:11:41.816Z,3.15
2022-12-14T02:14:08.966Z,3.15
2022-12-14T02:16:36.042Z,3.13
2022-12-14T02:19:02.925Z,3.13
2022-12-14T02:21:30.985Z,3.12
2022-12-14T02:23:58.178Z,3.08
2022-12-14T02:26:35.116Z,3.04
2022-12-14T02:29:11.856Z,2.98
2022-12-14T02:31:49.292Z,2.95
2022-12-14T02:34:31.999Z,2.97
2022-12-14T02:37:08.845Z,2.96
2022-12-14T02:39:45.765Z,2.97
2022-12-14T02:42:15.519Z,3.00
2022-12-14T02:44:51.946Z,2.98
2022-12-14T02:47:28.762Z,2.99
2022-12-14T02:50:04.577Z,3.04
2022-12-14T02:52:31.280Z,3.08
2022-12-14T02:55:04.024Z,3.06
2022-12-14T02:57:42.624Z,3.04
2022-12-14T03:00:09.797Z,3.06
2022-12-14T03:02:40.922Z,3.05
2022-12-14T03:05:08.333Z,3.06
2022-12-14T03:07:40.995Z,3.05
2022-12-14T03:10:26.000Z,3.04
2022-12-14T03:13:01.612Z,3.05
2022-12-14T03:15:31.769Z,3.04
2022-12-14T03:18:01.052Z,3.04
2022-12-14T03:20:29.895Z,3.00
2022-12-14T03:23:20.136Z,2.97
2022-12-14T03:26:07.108Z,2.96
2022-12-14T03:28:33.913Z,2.91
2022-12-14T03:31:11.813Z,2.89
2022-12-14T03:33:40.232Z,2.88
2022-12-14T03:36:10.732Z,2.89
2022-12-14T03:38:44.467Z,2.95
2022-12-14T03:41:15.400Z,2.94
2022-12-14T03:43:49.825Z,2.95
2022-12-14T03:46:28.955Z,2.94
2022-12-14T03:48:59.678Z,2.98
2022-12-14T03:51:40.411Z,2.95
2022-12-14T03:54:13.162Z,2.91
2022-12-14T03:56:39.776Z,2.91
2022-12-14T03:59:12.539Z,2.94
2022-12-14T04:01:39.245Z,2.91
2022-12-14T04:04:15.735Z,2.91
2022-12-14T04:06:46.695Z,2.90
2022-12-14T04:09:13.266Z,2.87
2022-12-14T04:12:02.553Z,2.85
2022-12-14T04:14:51.698Z,2.86
2022-12-14T04:17:41.962Z,2.84
2022-12-14T04:20:15.046Z,2.80
2022-12-14T04:22:45.100Z,2.79
2022-12-14T04:25:44.967Z,2.78
2022-12-14T04:28:59.507Z,2.84
2022-12-14T04:31:28.650Z,2.81
2022-12-14T04:33:58.611Z,2.78
2022-12-14T04:36:28.595Z,2.72
2022-12-14T04:38:58.609Z,2.67
2022-12-14T04:41:28.707Z,2.60
2022-12-14T04:43:58.544Z,2.58
2022-12-14T04:46:27.942Z,2.52
2022-12-14T04:48:57.845Z,2.48
2022-12-14T04:51:36.580Z,2.43
2022-12-14T04:54:09.769Z,2.44
2022-12-14T04:56:44.493Z,2.38
2022-12-14T04:59:11.288Z,2.37
2022-12-14T05:01:37.944Z,2.35
2022-12-14T05:04:14.106Z,2.34
2022-12-14T05:06:54.765Z,2.35
2022-12-14T05:09:39.275Z,2.32
2022-12-14T05:12:14.754Z,2.27
2022-12-14T05:14:49.473Z,2.26
2022-12-14T05:17:16.422Z,2.26
2022-12-14T05:19:48.770Z,2.26
2022-12-14T05:22:16.194Z,2.26
2022-12-14T05:24:42.785Z,2.25
2022-12-14T05:27:09.695Z,2.22
2022-12-14T05:29:36.357Z,2.22
2022-12-14T05:32:03.604Z,2.26
2022-12-14T05:34:31.590Z,2.23
2022-12-14T05:36:58.419Z,2.20
2022-12-14T05:39:25.130Z,2.19
2022-12-14T05:41:53.533Z,2.19
2022-12-14T05:44:20.415Z,2.19
2022-12-14T05:46:47.196Z,2.19
2022-12-14T05:49:13.849Z,2.12
2022-12-14T05:51:40.631Z,2.09
2022-12-14T05:54:07.569Z,2.08
2022-12-14T05:56:34.195Z,2.02
2022-12-14T05:59:00.900Z,1.99
2022-12-14T06:01:27.567Z,1.98
2022-12-14T06:03:54.687Z,1.98
2022-12-14T06:06:21.584Z,1.97
2022-12-14T06:08:48.462Z,1.92
2022-12-14T06:11:21.148Z,1.86
2022-12-14T06:13:47.942Z,1.83
2022-12-14T06:16:14.771Z,1.80
2022-12-14T06:18:45.726Z,1.83
2022-12-14T06:21:19.506Z,1.82
2022-12-14T06:23:46.457Z,1.83
2022-12-14T06:26:13.854Z,1.83
2022-12-14T06:28:40.562Z,1.82
2022-12-14T06:31:21.385Z,1.86
2022-12-14T06:33:48.390Z,1.88
2022-12-14T06:36:19.222Z,1.84
2022-12-14T06:38:46.119Z,1.78
2022-12-14T06:41:16.068Z,1.74
2022-12-14T06:43:42.804Z,1.77
2022-12-14T06:46:15.085Z,1.79
2022-12-14T06:48:42.865Z,1.79
2022-12-14T06:51:19.064Z,1.82
2022-12-14T06:53:46.561Z,1.81
2022-12-14T06:56:14.621Z,1.88
2022-12-14T06:58:41.965Z,1.87
2022-12-14T07:01:14.301Z,1.85
2022-12-14T07:03:45.150Z,1.79
2022-12-14T07:06:11.847Z,1.77
2022-12-14T07:08:39.015Z,1.76
2022-12-14T07:11:15.728Z,1.77
2022-12-14T07:13:42.701Z,1.80
2022-12-14T07:16:16.588Z,1.81
2022-12-14T07:18:43.353Z,1.81
2022-12-14T07:21:18.945Z,1.82
2022-12-14T07:23:46.296Z,1.79
2022-12-14T07:26:14.672Z,1.75
2022-12-14T07:28:42.207Z,1.76
2022-12-14T07:31:18.145Z,1.81
2022-12-14T07:33:45.080Z,1.87
2022-12-14T07:36:13.182Z,1.87
2022-12-14T07:38:40.337Z,1.93
2022-12-14T07:41:22.735Z,1.87
2022-12-14T07:43:51.230Z,1.82
2022-12-14T07:46:20.370Z,1.81
2022-12-14T07:48:48.298Z,1.76
2022-12-14T07:51:22.396Z,1.80
2022-12-14T07:53:50.472Z,1.82
2022-12-14T07:56:19.428Z,1.83
2022-12-14T07:58:46.087Z,1.79
2022-12-14T08:01:14.501Z,1.73
2022-12-14T08:03:43.144Z,1.68
2022-12-14T08:06:11.086Z,1.70
2022-12-14T08:08:37.741Z,1.70
2022-12-14T08:11:18.326Z,1.70
2022-12-14T08:13:45.334Z,1.73
2022-12-14T08:16:15.473Z,1.75
2022-12-14T08:18:45.429Z,1.79
2022-12-14T08:21:24.190Z,1.82
2022-12-14T08:23:51.448Z,1.83
2022-12-14T08:26:18.506Z,1.86
2022-12-14T08:28:45.915Z,1.88
2022-12-14T08:31:20.913Z,1.90
2022-12-14T08:33:48.376Z,1.96
2022-12-14T08:36:16.800Z,1.96
2022-12-14T08:38:43.498Z,1.94
2022-12-14T08:41:23.913Z,1.96
2022-12-14T08:43:51.729Z,1.96
2022-12-14T08:46:19.109Z,2.02
2022-12-14T08:48:46.017Z,2.01
2022-12-14T08:51:13.009Z,2.01
2022-12-14T08:53:40.670Z,2.06
2022-12-14T08:56:08.680Z,1.97
2022-12-14T08:58:36.777Z,1.96
2022-12-14T09:01:16.201Z,1.98
2022-12-14T09:03:44.892Z,2.07
2022-12-14T09:06:12.906Z,2.10
2022-12-14T09:08:39.595Z,2.13
2022-12-14T09:11:07.226Z,2.09
2022-12-14T09:13:34.541Z,2.09
2022-12-14T09:16:06.490Z,2.07
2022-12-14T09:18:34.568Z,2.11
2022-12-14T09:21:01.248Z,2.09
2022-12-14T09:23:29.132Z,2.15
2022-12-14T09:26:04.261Z,2.19
2022-12-14T09:28:31.769Z,2.20
2022-12-14T09:30:59.591Z,2.24
2022-12-14T09:33:27.560Z,2.32
2022-12-14T09:35:59.700Z,2.36
2022-12-14T09:38:26.393Z,2.40
2022-12-14T09:40:57.718Z,2.41
2022-12-14T09:43:43.911Z,2.42
2022-12-14T09:46:13.623Z,2.39
2022-12-14T09:48:42.204Z,2.38
2022-12-14T09:51:17.956Z,2.40
2022-12-14T09:53:46.838Z,2.46
2022-12-14T09:56:17.583Z,2.41
2022-12-14T09:58:50.898Z,2.46
2022-12-14T10:01:23.899Z,2.52
2022-12-14T10:04:03.263Z,2.60
2022-12-14T10:06:33.215Z,2.62
2022-12-14T10:09:18.738Z,2.64
2022-12-14T10:11:45.500Z,2.66
2022-12-14T10:14:12.080Z,2.70
2022-12-14T10:16:51.663Z,2.73
2022-12-14T10:19:38.211Z,2.71
2022-12-14T10:22:16.281Z,2.75
2022-12-14T10:24:44.828Z,2.81
2022-12-14T10:27:17.997Z,2.80
2022-12-14T10:29:48.027Z,2.81
2022-12-14T10:32:32.583Z,2.81
2022-12-14T10:35:01.593Z,2.78
2022-12-14T10:37:39.747Z,2.81
2022-12-14T10:40:15.558Z,2.82
2022-12-14T10:43:05.193Z,2.82
2022-12-14T10:45:47.759Z,2.84
2022-12-14T10:48:27.314Z,2.86
2022-12-14T10:51:03.291Z,2.84
2022-12-14T10:53:41.163Z,2.82
2022-12-14T10:56:14.126Z,2.80
2022-12-14T10:58:40.839Z,2.83
2022-12-14T11:01:23.334Z,2.85
2022-12-14T11:03:51.406Z,2.89
2022-12-14T11:06:19.190Z,2.91
2022-12-14T11:08:48.710Z,2.90
2022-12-14T11:11:19.141Z,2.96
2022-12-14T11:14:06.384Z,3.03
2022-12-14T11:16:42.449Z,3.07
2022-12-14T11:19:17.342Z,3.03
2022-12-14T11:21:44.499Z,3.03
2022-12-14T11:24:28.144Z,3.07
2022-12-14T11:26:59.205Z,3.12
2022-12-14T11:29:30.723Z,3.15
2022-12-14T11:31:57.652Z,3.16
2022-12-14T11:34:39.306Z,3.19
2022-12-14T11:37:11.862Z,3.22
2022-12-14T11:39:40.136Z,3.24
2022-12-14T11:42:07.119Z,3.22
2022-12-14T11:44:38.732Z,3.21
2022-12-14T11:47:06.978Z,3.22
2022-12-14T11:49:35.148Z,3.23
2022-12-14T11:52:04.860Z,3.24
2022-12-14T11:54:32.295Z,3.29
2022-12-14T11:57:04.499Z,3.33
2022-12-14T11:59:57.874Z,3.39
2022-12-14T12:02:33.266Z,3.46
2022-12-14T12:05:04.868Z,3.48
2022-12-14T12:07:33.718Z,3.47
2022-12-14T12:10:01.465Z,3.49
2022-12-14T12:12:28.325Z,3.55
2022-12-14T12:14:56.810Z,3.56
2022-12-14T12:17:50.915Z,3.59
2022-12-14T12:20:20.324Z,3.58
2022-12-14T12:22:49.637Z,3.55
2022-12-14T12:25:26.641Z,3.54
2022-12-14T12:27:59.920Z,3.53
2022-12-14T12:30:31.185Z,3.57
2022-12-14T12:33:02.751Z,3.58
2022-12-14T12:35:36.612Z,3.61
2022-12-14T12:38:15.277Z,3.66
2022-12-14T12:40:41.944Z,3.69
2022-12-14T12:43:19.333Z,3.69
2022-12-14T12:45:48.025Z,3.73
2022-12-14T12:48:17.621Z,3.74
2022-12-14T12:50:49.914Z,3.72
2022-12-14T12:53:21.976Z,3.69
2022-12-14T12:55:50.971Z,3.71
2022-12-14T12:58:22.779Z,3.71
2022-12-14T13:00:55.679Z,3.69
2022-12-14T13:03:28.050Z,3.70
2022-12-14T13:05:57.516Z,3.72
2022-12-14T13:08:28.711Z,3.68
2022-12-14T13:11:25.080Z,3.65
2022-12-14T13:13:56.981Z,3.65
2022-12-14T13:16:31.299Z,3.65
2022-12-14T13:19:25.343Z,3.68
2022-12-14T13:21:54.622Z,3.70
2022-12-14T13:24:23.445Z,3.71
2022-12-14T13:26:58.950Z,3.73
2022-12-14T13:29:40.036Z,3.74
2022-12-14T13:32:20.688Z,3.75
2022-12-14T13:34:52.555Z,3.74
2022-12-14T13:37:28.326Z,3.73
2022-12-14T13:40:13.843Z,3.66
2022-12-14T13:42:52.022Z,3.55
2022-12-14T13:45:23.617Z,3.44
2022-12-14T13:47:54.284Z,3.40
2022-12-14T13:50:40.701Z,3.35
2022-12-14T13:53:22.747Z,3.30
2022-12-14T13:56:13.471Z,3.21
2022-12-14T13:58:44.897Z,3.22
2022-12-14T14:01:35.506Z,3.18
2022-12-14T14:04:22.526Z,3.09
2022-12-14T14:06:49.998Z,2.97
2022-12-14T14:09:34.866Z,2.92
2022-12-14T14:12:01.515Z,2.88
2022-12-14T14:14:36.717Z,2.88
2022-12-14T14:17:18.748Z,2.83
2022-12-14T14:19:49.499Z,2.81
2022-12-14T14:22:23.258Z,2.71
2022-12-14T14:25:14.124Z,2.67
2022-12-14T14:27:43.680Z,2.61
2022-12-14T14:30:24.727Z,2.62
2022-12-14T14:32:54.245Z,2.57
2022-12-14T14:35:27.489Z,2.51
2022-12-14T14:38:17.259Z,2.46
2022-12-14T14:41:15.318Z,2.34
2022-12-14T14:43:39.374Z,2.29
2022-12-14T14:46:07.589Z,2.26
2022-12-14T14:48:54.356Z,2.22
2022-12-14T14:51:23.796Z,2.15
2022-12-14T14:54:17.095Z,2.07
2022-12-14T14:56:53.097Z,2.05
2022-12-14T14:59:20.512Z,2.07
2022-12-14T15:01:47.212Z,2.11
2022-12-14T15:04:23.612Z,2.19
2022-12-14T15:06:53.845Z,2.21
2022-12-14T15:09:25.717Z,2.17
2022-12-14T15:11:54.723Z,2.21
2022-12-14T15:14:48.262Z,2.18
2022-12-14T15:17:18.945Z,2.23
2022-12-14T15:19:49.876Z,2.28
2022-12-14T15:22:19.776Z,2.25
2022-12-14T15:24:48.171Z,2.29
2022-12-14T15:27:31.767Z,2.33
2022-12-14T15:30:01.557Z,2.34
2022-12-14T15:32:28.539Z,2.35
2022-12-14T15:34:57.267Z,2.38
2022-12-14T15:37:29.253Z,2.40
2022-12-14T15:40:00.385Z,2.42
2022-12-14T15:42:28.174Z,2.43
2022-12-14T15:44:55.633Z,2.47
2022-12-14T15:47:27.079Z,2.54
2022-12-14T15:49:59.770Z,2.58
2022-12-14T15:52:30.351Z,2.62
2022-12-14T15:54:57.549Z,2.70
2022-12-14T15:57:24.576Z,2.70
2022-12-14T15:59:54.006Z,2.73
2022-12-14T16:02:28.577Z,2.73
2022-12-14T16:04:56.260Z,2.78
2022-12-14T16:07:25.921Z,2.83
2022-12-14T16:09:54.654Z,2.86
2022-12-14T16:12:45.452Z,2.89
2022-12-14T16:15:28.585Z,2.95
2022-12-14T16:18:02.162Z,2.98
2022-12-14T16:20:35.827Z,3.02
2022-12-14T16:23:15.819Z,3.07
2022-12-14T16:25:54.624Z,3.10
2022-12-14T16:28:35.295Z,3.10
2022-12-14T16:31:02.014Z,3.10
2022-12-14T16:33:35.737Z,3.12
2022-12-14T16:36:04.450Z,3.11
2022-12-14T16:38:51.305Z,3.13
2022-12-14T16:41:40.110Z,3.19
2022-12-14T16:44:08.535Z,3.16
2022-12-14T16:46:35.492Z,3.17
2022-12-14T16:49:23.448Z,3.15
2022-12-14T16:52:08.720Z,3.13
2022-12-14T16:54:36.187Z,3.12
2022-12-14T16:57:05.776Z,3.17
2022-12-14T16:59:41.116Z,3.17
2022-12-14T17:02:40.465Z,3.19
2022-12-14T17:05:13.099Z,3.22
2022-12-14T17:07:39.832Z,3.27
2022-12-14T17:10:14.498Z,3.29
2022-12-14T17:12:45.932Z,3.29
2022-12-14T17:15:13.628Z,3.36
2022-12-14T17:17:40.551Z,3.37
2022-12-14T17:20:13.659Z,3.39
2022-12-14T17:22:40.923Z,3.37
2022-12-14T17:25:07.762Z,3.39
2022-12-14T17:27:34.394Z,3.39
2022-12-14T17:30:01.623Z,3.37
2022-12-14T17:32:30.744Z,3.39
2022-12-14T17:34:58.306Z,3.42
2022-12-14T17:37:27.651Z,3.43
2022-12-14T17:40:00.050Z,3.42
2022-12-14T17:42:26.851Z,3.43
2022-12-14T17:44:57.365Z,3.45
2022-12-14T17:47:24.627Z,3.45
2022-12-14T17:49:51.315Z,3.47
2022-12-14T17:52:26.297Z,3.50
2022-12-14T17:54:53.076Z,3.50
2022-12-14T17:57:21.084Z,3.49
2022-12-14T17:59:48.120Z,3.54
2022-12-14T18:02:25.987Z,3.54
2022-12-14T18:04:52.840Z,3.55
2022-12-14T18:07:19.469Z,3.51
2022-12-14T18:09:46.161Z,3.50
2022-12-14T18:12:23.202Z,3.48
2022-12-14T18:14:50.435Z,3.48
2022-12-14T18:17:22.203Z,3.47
2022-12-14T18:19:49.501Z,3.48
2022-12-14T18:22:16.756Z,3.50
2022-12-14T18:24:43.615Z,3.50
2022-12-14T18:27:13.774Z,3.50
2022-12-14T18:29:40.420Z,3.46
2022-12-14T18:32:07.068Z,3.46
2022-12-14T18:34:33.720Z,3.43
2022-12-14T18:37:01.828Z,3.45
2022-12-14T18:39:28.445Z,3.48
2022-12-14T18:41:55.170Z,3.52
2022-12-14T18:44:22.704Z,3.56
2022-12-14T18:46:49.778Z,3.56
2022-12-14T18:49:16.608Z,3.55
2022-12-14T18:51:43.842Z,3.56
2022-12-14T18:54:11.760Z,3.59
2022-12-14T18:56:40.764Z,3.59
2022-12-14T18:59:07.414Z,3.61
2022-12-14T19:01:34.301Z,3.60
2022-12-14T19:04:01.575Z,3.64
2022-12-14T19:06:45.446Z,3.61
2022-12-14T19:09:14.037Z,3.61
2022-12-14T19:11:43.301Z,3.60
2022-12-14T19:14:10.794Z,3.63
2022-12-14T19:16:48.299Z,3.59
2022-12-14T19:19:14.936Z,3.58
2022-12-14T19:21:41.733Z,3.58
2022-12-14T19:24:08.861Z,3.58
2022-12-14T19:26:38.077Z,3.56
2022-12-14T19:29:04.915Z,3.54
2022-12-14T19:31:32.595Z,3.51
2022-12-14T19:33:59.554Z,3.49
2022-12-14T19:36:26.261Z,3.48
2022-12-14T19:38:52.956Z,3.47
2022-12-14T19:41:21.609Z,3.45
2022-12-14T19:43:48.598Z,3.40
2022-12-14T19:46:16.481Z,3.39
2022-12-14T19:48:43.261Z,3.38
2022-12-14T19:51:19.518Z,3.32
2022-12-14T19:53:47.516Z,3.27
2022-12-14T19:56:15.431Z,3.24
2022-12-14T19:58:42.163Z,3.22
2022-12-14T20:01:18.443Z,3.24
2022-12-14T20:03:45.567Z,3.21
2022-12-14T20:06:12.502Z,3.17
2022-12-14T20:08:39.163Z,3.13
2022-12-14T20:11:07.100Z,3.08
2022-12-14T20:13:34.183Z,3.05
2022-12-14T20:16:02.258Z,3.02
2022-12-14T20:18:33.289Z,3.02
2022-12-14T20:21:03.968Z,3.02
2022-12-14T20:23:32.099Z,3.00
2022-12-14T20:26:03.305Z,3.02
2022-12-14T20:28:30.547Z,2.99
2022-12-14T20:30:57.288Z,2.98
2022-12-14T20:33:29.637Z,2.98
2022-12-14T20:35:57.077Z,2.95
2022-12-14T20:38:23.840Z,2.93
2022-12-14T20:40:50.799Z,2.92
2022-12-14T20:43:17.628Z,2.91
2022-12-14T20:45:44.358Z,2.87
2022-12-14T20:48:11.427Z,2.82
2022-12-14T20:50:39.556Z,2.81
2022-12-14T20:53:06.785Z,2.80
2022-12-14T20:55:34.444Z,2.80
2022-12-14T20:58:01.640Z,2.80
2022-12-14T21:00:28.699Z,2.80
2022-12-14T21:02:56.793Z,2.76
2022-12-14T21:05:23.558Z,2.76
2022-12-14T21:07:50.670Z,2.73
2022-12-14T21:10:17.426Z,2.71
2022-12-14T21:12:47.283Z,2.68
2022-12-14T21:15:13.885Z,2.70
2022-12-14T21:17:40.942Z,2.66
2022-12-14T21:20:07.886Z,2.63
2022-12-14T21:22:35.549Z,2.62
2022-12-14T21:25:04.078Z,2.62
2022-12-14T21:27:32.243Z,2.58
2022-12-14T21:30:00.267Z,2.61
2022-12-14T21:32:27.182Z,2.57
2022-12-14T21:34:53.888Z,2.56
2022-12-14T21:37:21.083Z,2.57
2022-12-14T21:39:54.544Z,2.57
2022-12-14T21:42:23.262Z,2.58
2022-12-14T21:44:50.710Z,2.60
2022-12-14T21:47:21.492Z,2.56
2022-12-14T21:49:48.502Z,2.51
2022-12-14T21:52:17.398Z,2.48
2022-12-14T21:54:44.206Z,2.46
2022-12-14T21:57:32.077Z,2.43
2022-12-14T21:59:58.801Z,2.42
2022-12-14T22:02:38.939Z,2.41
2022-12-14T22:05:05.820Z,2.42
2022-12-14T22:07:33.600Z,2.41
2022-12-14T22:10:00.295Z,2.39
2022-12-14T22:12:27.010Z,2.39
2022-12-14T22:14:57.274Z,2.37
2022-12-14T22:17:24.255Z,2.34
2022-12-14T22:19:52.267Z,2.30
2022-12-14T22:22:18.902Z,2.26
2022-12-14T22:24:48.154Z,2.20
2022-12-14T22:27:15.114Z,2.18
2022-12-14T22:29:41.836Z,2.20
2022-12-14T22:32:11.073Z,2.20
2022-12-14T22:34:37.806Z,2.22
2022-12-14T22:37:04.444Z,2.21
2022-12-14T22:39:31.180Z,2.19
2022-12-14T22:41:57.968Z,2.15
2022-12-14T22:44:24.712Z,2.13
2022-12-14T22:46:51.511Z,2.13
2022-12-14T22:49:19.285Z,2.13
2022-12-14T22:51:46.189Z,2.14
2022-12-14T22:54:17.264Z,2.10
2022-12-14T22:56:45.978Z,2.14
2022-12-14T22:59:13.714Z,2.10
2022-12-14T23:01:41.236Z,2.06
2022-12-14T23:04:08.922Z,2.05
2022-12-14T23:06:36.271Z,2.04
2022-12-14T23:09:21.546Z,2.07
2022-12-14T23:12:11.343Z,2.05
2022-12-14T23:14:57.354Z,2.06
2022-12-14T23:17:47.137Z,2.07
2022-12-14T23:20:33.027Z,2.04
2022-12-14T23:23:18.880Z,2.05
2022-12-14T23:26:04.498Z,2.05
2022-12-14T23:28:51.396Z,2.07
2022-12-14T23:31:37.361Z,2.07
2022-12-14T23:34:22.618Z,2.07
2022-12-14T23:37:07.771Z,2.05
2022-12-14T23:39:53.958Z,2.00
2022-12-14T23:42:39.219Z,1.97
2022-12-14T23:45:24.730Z,1.95
2022-12-14T23:48:09.796Z,1.95
2022-12-14T23:50:55.445Z,1.96
2022-12-14T23:53:40.608Z,1.96
2022-12-14T23:56:25.837Z,1.96
2022-12-14T23:59:14.004Z,1.89
